logo tempoitalia

Diretta Meteo Volgograd, Russiasabato 28 marzo ore 22:30

Mappa
Sereno 7 °C Sereno 24 Ore: T.min 2 T.max 17
Ponente Sud-Est Km/h 14.4 Punto di rugiada: -6 °C Umidità: 38% Visibilità: 10 Km
Il sole sorge alle: 05:45 Il sole tramonta alle: 18:29
28 Marzo 2020 22:30 tempo osservato: Sereno Sereno 7 38 1019 vento: Nord SE 14.4
28 Marzo 2020 22:00 tempo osservato: Sereno Sereno 9 33 1019 vento: Nord SE 18
28 Marzo 2020 21:30 tempo osservato: Sereno Sereno 10 29 1019 vento: Nord SE 18
28 Marzo 2020 21:00 tempo osservato: Sereno Sereno 7 36 1019 vento: Nord E 18
28 Marzo 2020 20:30 tempo osservato: Sereno Sereno 6 41 1019 vento: Nord E 18
28 Marzo 2020 20:00 tempo osservato: Sereno Sereno 9 29 1019 vento: Nord E 18
28 Marzo 2020 19:30 tempo osservato: Sereno Sereno 9 31 1019 vento: Nord E 18
28 Marzo 2020 18:00 tempo osservato: Sereno Sereno 14 22 1019 vento: Nord E/SE 18
28 Marzo 2020 17:30 tempo osservato: Sereno Sereno 15 21 1019 vento: Nord E/SE 21.6
28 Marzo 2020 16:30 tempo osservato: Sereno Sereno 17 18 1020 vento: Nord SE 25.2
28 Marzo 2020 16:00 tempo osservato: Sereno Sereno 17 18 1020 vento: Nord SE 25.2
28 Marzo 2020 15:30 tempo osservato: Sereno Sereno 17 17 1020 vento: Nord SE 25.2
28 Marzo 2020 15:00 tempo osservato: Sereno Sereno 17 15 1020 vento: Nord E/SE 25.2
28 Marzo 2020 14:30 tempo osservato: Sereno Sereno 17 17 1021 vento: Nord SE 25.2
28 Marzo 2020 14:00 tempo osservato: Sereno Sereno 17 18 1021 vento: Nord SE 25.2
28 Marzo 2020 13:30 tempo osservato: Sereno Sereno 16 21 1022 vento: Nord E/SE 28.8
28 Marzo 2020 13:00 tempo osservato: Sereno Sereno 16 26 1022 vento: Nord E 21.6
28 Marzo 2020 12:30 tempo osservato: Sereno Sereno 14 35 1022 vento: Nord E 25.2
28 Marzo 2020 12:00 tempo osservato: Sereno Sereno 14 35 1023 vento: Nord E 21.6
28 Marzo 2020 11:30 tempo osservato: Sereno Sereno 13 40 1023 vento: Nord E 21.6
28 Marzo 2020 11:00 tempo osservato: Sereno Sereno 12 40 1023 vento: Nord E 21.6
28 Marzo 2020 10:30 tempo osservato: Sereno Sereno 12 43 1023 vento: Nord E 18
28 Marzo 2020 10:00 tempo osservato: Sereno Sereno 11 46 1023 vento: Nord E 18
28 Marzo 2020 09:30 tempo osservato: Sereno Sereno 10 49 1023 vento: Nord E 21.6
28 Marzo 2020 09:00 tempo osservato: Sereno Sereno 8 56 1024 vento: Nord E 21.6
28 Marzo 2020 08:30 tempo osservato: Sereno Sereno 7 60 1024 vento: Nord E 18
28 Marzo 2020 08:00 tempo osservato: Sereno Sereno 6 70 1024 vento: Nord E 14.4
28 Marzo 2020 07:30 tempo osservato: Sereno Sereno 4 75 1024 vento: Nord E 25.2
28 Marzo 2020 07:00 tempo osservato: Sereno Sereno 4 75 1024 vento: Nord E 21.6
28 Marzo 2020 06:30 tempo osservato: Sereno Sereno 3 80 1024 vento: Nord E 21.6
28 Marzo 2020 06:00 tempo osservato: Sereno Sereno 2 86 1024 vento: Nord E 18
28 Marzo 2020 05:30 tempo osservato: Sereno Sereno 2 86 1024 vento: Nord E 25.2
28 Marzo 2020 05:00 tempo osservato: Sereno Sereno 3 80 1024 vento: Nord E 25.2
28 Marzo 2020 04:30 tempo osservato: Sereno Sereno 3 80 1024 vento: Nord E/NE 25.2
28 Marzo 2020 04:00 tempo osservato: Sereno Sereno 2 86 1025 vento: Nord E 21.6
28 Marzo 2020 03:30 tempo osservato: Sereno Sereno 3 80 1025 vento: Nord E 18
28 Marzo 2020 03:00 tempo osservato: Sereno Sereno 4 75 1025 vento: Nord E/NE 25.2
28 Marzo 2020 02:30 tempo osservato: Sereno Sereno 3 80 1025 vento: Nord E/NE 25.2
28 Marzo 2020 02:00 tempo osservato: Sereno Sereno 3 74 1025 vento: Nord E/NE 25.2
28 Marzo 2020 01:30 tempo osservato: Sereno Sereno 3 69 1025 vento: Nord E/NE 25.2
28 Marzo 2020 01:00 tempo osservato: Sereno Sereno 4 64 1025 vento: Nord E/NE 21.6
28 Marzo 2020 00:30 tempo osservato: Sereno Sereno 4 64 1025 vento: Nord E/NE 18
28 Marzo 2020 00:00 tempo osservato: Sereno Sereno 4 55 1026 vento: Nord E/NE 18
27 Marzo 2020 23:30 tempo osservato: Sereno Sereno 5 48 1026 vento: Nord E/NE 14.4
27 Marzo 2020 23:00 tempo osservato: Sereno Sereno 4 44 1026 vento: Nord N 3.6